createdAt,value
2022-08-22T04:04:10.658Z,17.82
2022-08-22T04:07:48.030Z,17.82
2022-08-22T04:11:03.667Z,17.38
2022-08-22T04:14:24.300Z,17.48
2022-08-22T04:17:39.083Z,17.63
2022-08-22T04:21:03.773Z,17.73
2022-08-22T04:24:14.459Z,17.88
2022-08-22T04:27:47.955Z,17.99
2022-08-22T04:31:07.296Z,18.07
2022-08-22T04:34:18.579Z,18.12
2022-08-22T04:37:35.302Z,18.26
2022-08-22T04:41:17.231Z,18.42
2022-08-22T04:44:29.969Z,18.60
2022-08-22T04:47:47.951Z,18.75
2022-08-22T04:51:12.920Z,18.83
2022-08-22T04:54:27.299Z,18.92
2022-08-22T04:57:32.663Z,19.07
2022-08-22T05:01:07.350Z,19.21
2022-08-22T05:04:13.399Z,19.36
2022-08-22T05:07:25.059Z,19.48
2022-08-22T05:10:35.555Z,19.54
2022-08-22T05:13:44.833Z,19.68
2022-08-22T05:16:53.103Z,19.85
2022-08-22T05:20:02.039Z,19.86
2022-08-22T05:23:46.400Z,19.90
2022-08-22T05:26:52.790Z,19.97
2022-08-22T05:30:12.556Z,19.99
2022-08-22T05:33:24.323Z,19.95
2022-08-22T05:36:31.839Z,19.93
2022-08-22T05:39:36.963Z,19.95
2022-08-22T05:42:39.935Z,20.03
2022-08-22T05:45:47.110Z,20.09
2022-08-22T05:48:57.564Z,20.15
2022-08-22T05:52:07.234Z,20.25
2022-08-22T05:55:19.396Z,20.39
2022-08-22T05:58:41.579Z,20.56
2022-08-22T06:02:06.110Z,20.63
2022-08-22T06:05:12.215Z,20.76
2022-08-22T06:08:38.060Z,20.90
2022-08-22T06:11:51.767Z,21.15
2022-08-22T06:15:15.636Z,21.43
2022-08-22T06:18:24.171Z,21.76
2022-08-22T06:21:37.156Z,21.85
2022-08-22T06:24:43.036Z,22.04
2022-08-22T06:27:48.449Z,21.95
2022-08-22T06:30:55.727Z,21.88
2022-08-22T06:34:14.682Z,21.99
2022-08-22T06:37:25.128Z,22.30
2022-08-22T06:40:29.391Z,22.42
2022-08-22T06:43:42.909Z,22.61
2022-08-22T06:46:48.235Z,22.79
2022-08-22T06:50:01.176Z,22.88
2022-08-22T06:53:17.401Z,22.50
2022-08-22T06:56:24.463Z,22.79
2022-08-22T06:59:30.261Z,22.95
2022-08-22T07:02:48.217Z,23.54
2022-08-22T07:05:54.867Z,23.82
2022-08-22T07:08:58.367Z,23.49
2022-08-22T07:12:22.860Z,23.44
2022-08-22T07:15:36.681Z,23.52
2022-08-22T07:18:49.039Z,23.57
2022-08-22T07:21:52.094Z,23.61
2022-08-22T07:25:01.045Z,23.74
2022-08-22T07:28:51.166Z,23.72
2022-08-22T07:32:19.451Z,23.75
2022-08-22T07:35:42.951Z,23.85
2022-08-22T07:39:07.083Z,23.98
2022-08-22T07:42:18.823Z,24.10
2022-08-22T07:45:34.363Z,24.54
2022-08-22T07:49:21.932Z,24.94
2022-08-22T07:52:29.795Z,24.96
2022-08-22T07:55:34.137Z,24.89
2022-08-22T07:58:48.120Z,25.13
2022-08-22T08:01:57.276Z,25.77
2022-08-22T08:05:00.829Z,26.36
2022-08-22T08:08:20.895Z,25.93
2022-08-22T08:11:27.427Z,25.73
2022-08-22T08:14:31.158Z,25.77
2022-08-22T08:17:37.936Z,26.10
2022-08-22T08:20:40.692Z,25.99
2022-08-22T08:23:46.747Z,26.30
2022-08-22T08:27:17.213Z,26.52
2022-08-22T08:30:24.610Z,26.62
2022-08-22T08:33:29.265Z,26.38
2022-08-22T08:36:53.321Z,26.10
2022-08-22T08:39:59.441Z,25.85
2022-08-22T08:43:27.802Z,25.63
2022-08-22T08:47:15.247Z,25.62
2022-08-22T08:50:40.598Z,25.34
2022-08-22T08:54:11.679Z,25.01
2022-08-22T08:57:29.563Z,25.20
2022-08-22T09:01:02.243Z,25.97
2022-08-22T09:04:33.284Z,26.40
2022-08-22T09:08:01.002Z,26.55
2022-08-22T09:11:38.366Z,26.08
2022-08-22T09:15:11.846Z,25.94
2022-08-22T09:18:39.356Z,25.71
2022-08-22T09:21:54.988Z,26.18
2022-08-22T09:25:38.637Z,26.73
2022-08-22T09:28:55.416Z,27.57
2022-08-22T09:32:19.115Z,28.01
2022-08-22T09:35:49.061Z,27.78
2022-08-22T09:39:03.087Z,27.81
2022-08-22T09:42:08.468Z,27.77
2022-08-22T09:45:32.762Z,27.59
2022-08-22T09:48:35.577Z,27.55
2022-08-22T09:51:44.926Z,27.23
2022-08-22T09:55:04.389Z,26.65
2022-08-22T09:58:25.916Z,25.62
2022-08-22T10:01:40.135Z,25.37
2022-08-22T10:04:50.219Z,25.17
2022-08-22T10:08:02.935Z,25.30
2022-08-22T10:11:13.496Z,25.63
2022-08-22T10:14:25.612Z,26.02
2022-08-22T10:17:36.504Z,26.02
2022-08-22T10:21:02.050Z,26.18
2022-08-22T10:24:24.613Z,26.19
2022-08-22T10:27:56.494Z,26.40
2022-08-22T10:31:05.421Z,26.67
2022-08-22T10:34:17.370Z,27.25
2022-08-22T10:37:37.327Z,27.22
2022-08-22T10:41:13.156Z,27.24
2022-08-22T10:44:24.827Z,27.44
2022-08-22T10:47:36.553Z,27.93
2022-08-22T10:50:50.351Z,28.34
2022-08-22T10:54:02.912Z,29.00
2022-08-22T10:57:26.553Z,29.32
2022-08-22T11:00:50.064Z,29.73
2022-08-22T11:04:28.156Z,29.57
2022-08-22T11:08:06.792Z,29.83
2022-08-22T11:11:32.632Z,30.06
2022-08-22T11:15:03.551Z,30.46
2022-08-22T11:18:34.041Z,30.61
2022-08-22T11:21:55.364Z,30.78
2022-08-22T11:25:13.837Z,30.24
2022-08-22T11:28:28.937Z,30.21
2022-08-22T11:32:04.317Z,30.94
2022-08-22T11:35:24.274Z,30.76
2022-08-22T11:38:59.566Z,30.90
2022-08-22T11:42:29.746Z,31.61
2022-08-22T11:45:40.882Z,32.33
2022-08-22T11:49:06.909Z,32.31
2022-08-22T11:52:37.760Z,31.19
2022-08-22T11:56:07.635Z,29.83
2022-08-22T11:59:26.355Z,29.02
2022-08-22T12:02:37.262Z,27.69
2022-08-22T12:05:47.215Z,26.70
2022-08-22T12:08:50.894Z,25.99
2022-08-22T12:12:20.416Z,25.55
2022-08-22T12:15:43.709Z,25.40
2022-08-22T12:19:14.504Z,25.51
2022-08-22T12:22:36.086Z,25.92
2022-08-22T12:26:10.898Z,26.50
2022-08-22T12:29:20.161Z,27.24
2022-08-22T12:32:51.931Z,27.60
2022-08-22T12:37:02.395Z,27.95
2022-08-22T12:40:16.473Z,29.20
2022-08-22T12:43:57.767Z,31.35
2022-08-22T12:47:19.586Z,31.91
2022-08-22T12:50:42.082Z,31.86
2022-08-22T12:54:22.891Z,31.11
2022-08-22T12:57:25.710Z,31.25
2022-08-22T13:00:49.631Z,31.37
2022-08-22T13:04:02.841Z,31.93
2022-08-22T13:07:27.282Z,33.88
2022-08-22T13:10:31.780Z,36.80
2022-08-22T13:13:39.446Z,36.51
2022-08-22T13:16:51.170Z,35.02
2022-08-22T13:20:03.083Z,33.06
2022-08-22T13:23:16.951Z,31.37
2022-08-22T13:26:33.657Z,30.18
2022-08-22T13:29:44.961Z,30.07
2022-08-22T13:32:54.853Z,29.74
2022-08-22T13:36:12.876Z,29.46
2022-08-22T13:39:16.265Z,28.86
2022-08-22T13:42:30.470Z,28.17
2022-08-22T13:45:36.166Z,27.30
2022-08-22T13:49:00.869Z,25.62
2022-08-22T13:52:29.243Z,24.41
2022-08-22T13:55:44.683Z,23.56
2022-08-22T13:58:58.971Z,23.24
2022-08-22T14:02:18.540Z,22.84
